Laramie, Wyoming
Current Conditions -  °F | °C
As of 3:53 AM on Friday 24 Oct 2014 (Local Time) from KLAR Reporting Station
Clear Clear  
Wind Chill: 11°   Ceiling: Unl
Heat Index: 11°   Visibility: 10mi
Dew Point: -4°   Wind: 8mph
Humidity: 36%   Direction: 220°SW
Pressure: 30.21"   Gusts: NA
Location:  41.31°N, 105.59°W
Report Text: KLAR 240953Z AUTO 22007KT 10SM CLR 11/M04 A3021 RMK AO2 SLP145 T01061039
Loading
Personal Weather Stations






























Interactive Weather Map
Tropical Storm Tracking
New forecast layout! Learn more

10-Day Weather Forecast

Advertisements
Track Severe Weather on mobile